Time;durP1;ratioP1;P1;durP2;ratioP2;P2;SDS_P1;SDS_P2;PMS_P1;PMS_P2;Temp;Humidity;BMP_temperature;BMP_pressure;BME280_temperature;BME280_humidity;BME280_pressure;Samples;Min_cycle;Max_cycle;Signal;HPM_P1;HPM_P2
2022/02/27 00:02:18;;;;;;;251.60;239.13;;;1.20;99.90;;;;;;4359336;33;20188;-61
2022/02/27 00:04:46;;;;;;;260.37;247.57;;;1.20;99.90;;;;;;4353124;33;20234;-61
2022/02/27 00:07:16;;;;;;;247.20;234.97;;;1.30;99.90;;;;;;4360068;33;20154;-61
2022/02/27 00:09:53;;;;;;;240.83;228.80;;;1.30;99.90;;;;;;4360043;33;20156;-63
2022/02/27 00:12:29;;;;;;;245.13;232.80;;;1.30;99.90;;;;;;4358335;33;20152;-62
2022/02/27 00:14:59;;;;;;;256.37;242.90;;;1.20;99.90;;;;;;4359368;33;20149;-61
2022/02/27 00:17:29;;;;;;;246.87;234.97;;;1.20;99.90;;;;;;4358664;33;20636;-61
2022/02/27 00:19:57;;;;;;;259.90;247.40;;;1.20;99.90;;;;;;4360734;33;20187;-63
2022/02/27 00:22:30;;;;;;;250.33;237.57;;;1.20;99.90;;;;;;4359952;33;20176;-61
2022/02/27 00:24:58;;;;;;;253.47;240.50;;;1.20;99.90;;;;;;4358235;33;20153;-62
2022/02/27 00:27:43;;;;;;;249.10;236.83;;;1.20;99.90;;;;;;4359979;33;20152;-62
2022/02/27 00:30:28;;;;;;;243.20;231.43;;;1.20;99.90;;;;;;4361525;33;20933;-61
2022/02/27 00:33:06;;;;;;;249.00;236.53;;;1.10;99.90;;;;;;4358528;33;20217;-61
2022/02/27 00:35:35;;;;;;;245.33;233.17;;;1.10;99.90;;;;;;4357466;33;20184;-61
2022/02/27 00:41:07;;;;;;;251.87;239.37;;;1.10;99.90;;;;;;4315793;33;20220;-62
2022/02/27 00:43:37;;;;;;;244.13;231.53;;;1.10;99.90;;;;;;4314247;33;20372;-63
2022/02/27 00:46:17;;;;;;;250.47;238.30;;;1.00;99.90;;;;;;4313123;33;20494;-61
2022/02/27 00:48:47;;;;;;;257.23;244.97;;;1.00;99.90;;;;;;4313558;33;20181;-61
2022/02/27 00:51:17;;;;;;;256.43;243.73;;;1.00;99.90;;;;;;4299949;33;20185;-61
2022/02/27 00:53:52;;;;;;;249.83;237.27;;;1.00;99.90;;;;;;4306320;33;20197;-61
2022/02/27 00:56:28;;;;;;;253.97;241.10;;;1.00;99.90;;;;;;4315418;33;20187;-64
2022/02/27 00:59:12;;;;;;;;;;;;;;;;;;;;;
2022/02/27 01:01:44;;;;;;;258.73;245.17;;;0.90;99.90;;;;;;4315732;33;20248;-61
2022/02/27 01:04:11;;;;;;;263.40;250.17;;;0.90;99.90;;;;;;4317741;33;20165;-63
2022/02/27 01:06:40;;;;;;;256.83;244.10;;;0.90;99.90;;;;;;4315743;33;20172;-63
2022/02/27 01:09:14;;;;;;;259.27;246.03;;;0.90;99.90;;;;;;4315912;33;20631;-63
2022/02/27 01:11:47;;;;;;;255.37;243.03;;;0.90;99.90;;;;;;4316183;33;20219;-63
2022/02/27 01:14:20;;;;;;;261.83;248.67;;;0.80;99.90;;;;;;4317445;33;20423;-62
2022/02/27 01:16:51;;;;;;;258.83;245.60;;;0.80;99.90;;;;;;4316135;33;20284;-62
2022/02/27 01:19:26;;;;;;;258.27;245.70;;;0.80;99.90;;;;;;4361968;33;20161;-62
2022/02/27 01:22:01;;;;;;;274.10;260.20;;;0.70;99.90;;;;;;4362736;32;20622;-63
2022/02/27 01:24:30;;;;;;;274.83;260.57;;;0.70;99.90;;;;;;4361192;33;20157;-61
2022/02/27 01:27:01;;;;;;;265.90;252.70;;;0.70;99.90;;;;;;4349499;33;20173;-61
2022/02/27 01:29:36;;;;;;;270.33;256.47;;;0.70;99.90;;;;;;4361570;32;20146;-61
2022/02/27 01:32:03;;;;;;;278.53;264.73;;;0.70;99.90;;;;;;4361853;33;20140;-61
2022/02/27 01:34:32;;;;;;;274.67;260.60;;;0.60;99.90;;;;;;4360489;32;20231;-61
2022/02/27 01:37:09;;;;;;;266.30;253.53;;;0.60;99.90;;;;;;4360819;33;20180;-61
2022/02/27 01:39:40;;;;;;;273.67;260.00;;;0.60;99.90;;;;;;4360067;33;20310;-61
2022/02/27 01:42:13;;;;;;;266.73;253.03;;;0.60;99.90;;;;;;4361635;33;20204;-63
2022/02/27 01:44:46;;;;;;;275.60;262.40;;;0.60;99.90;;;;;;4359944;33;20149;-61
2022/02/27 01:47:14;;;;;;;277.10;264.07;;;0.50;99.90;;;;;;4348031;33;20209;-61
2022/02/27 01:49:48;;;;;;;284.63;271.23;;;0.50;99.90;;;;;;4361163;33;20234;-61
2022/02/27 01:52:21;;;;;;;273.23;260.43;;;0.50;99.90;;;;;;4354903;32;20164;-61
2022/02/27 01:54:49;;;;;;;279.57;265.83;;;0.50;99.90;;;;;;4360547;32;20203;-62
2022/02/27 01:57:20;;;;;;;281.63;267.60;;;0.50;99.90;;;;;;4362419;32;20149;-61
2022/02/27 02:00:02;;;;;;;278.73;265.73;;;0.50;99.90;;;;;;4360972;33;20162;-61
2022/02/27 02:02:32;;;;;;;279.07;265.47;;;0.40;99.90;;;;;;4361124;32;20149;-61
2022/02/27 02:05:15;;;;;;;281.47;268.03;;;0.40;99.90;;;;;;4360957;33;20631;-61
2022/02/27 02:07:54;;;;;;;277.03;263.80;;;0.40;99.90;;;;;;4359279;33;20153;-61
2022/02/27 02:10:23;;;;;;;284.70;271.23;;;0.40;99.90;;;;;;4361547;33;20194;-61
2022/02/27 02:12:54;;;;;;;284.93;271.57;;;0.40;99.90;;;;;;4361762;32;20175;-61
2022/02/27 02:15:28;;;;;;;286.70;273.00;;;0.40;99.90;;;;;;4361814;32;20161;-62
2022/02/27 02:17:58;;;;;;;283.23;269.73;;;0.40;99.90;;;;;;4361036;32;20156;-61
2022/02/27 02:20:26;;;;;;;282.57;269.67;;;0.40;99.90;;;;;;4361698;32;20149;-63
2022/02/27 02:22:53;;;;;;;282.37;269.30;;;0.50;99.90;;;;;;4361684;32;20175;-63
2022/02/27 02:25:23;;;;;;;281.47;267.63;;;0.50;99.90;;;;;;4361182;33;20161;-62
2022/02/27 02:27:56;;;;;;;280.77;267.27;;;0.40;99.90;;;;;;4358767;33;20157;-62
2022/02/27 02:30:23;;;;;;;280.83;267.90;;;0.40;99.90;;;;;;4362529;32;20617;-63
2022/02/27 02:32:54;;;;;;;276.77;263.97;;;0.40;99.90;;;;;;4361709;32;20172;-62
2022/02/27 02:35:26;;;;;;;268.00;254.90;;;0.40;99.90;;;;;;4361088;33;20265;-63
2022/02/27 02:37:57;;;;;;;281.47;267.87;;;0.40;99.90;;;;;;4348433;33;20169;-63
2022/02/27 02:40:25;;;;;;;278.20;265.10;;;0.30;99.90;;;;;;4352298;33;20169;-62
2022/02/27 02:42:55;;;;;;;279.67;266.73;;;0.40;99.90;;;;;;4360912;33;20569;-62
2022/02/27 02:45:28;;;;;;;274.77;261.50;;;0.30;99.90;;;;;;4360736;33;20153;-62
2022/02/27 02:48:00;;;;;;;279.60;266.23;;;0.30;99.90;;;;;;4358350;32;20589;-61
2022/02/27 02:50:34;;;;;;;279.83;267.30;;;0.30;99.90;;;;;;4360447;33;20168;-61
2022/02/27 02:53:10;;;;;;;286.27;272.03;;;0.30;99.90;;;;;;4347045;33;20519;-61
2022/02/27 02:55:46;;;;;;;287.10;273.93;;;0.30;99.90;;;;;;4352051;33;20192;-61
2022/02/27 02:58:13;;;;;;;292.23;277.53;;;0.20;99.90;;;;;;4350498;32;20171;-62
2022/02/27 03:00:40;;;;;;;282.27;268.90;;;0.20;99.90;;;;;;4346293;33;20145;-62
2022/02/27 03:03:07;;;;;;;285.07;271.60;;;0.30;99.90;;;;;;4346126;33;20176;-62
2022/02/27 03:05:37;;;;;;;280.90;268.10;;;0.30;99.90;;;;;;4355912;33;20215;-62
2022/02/27 03:08:15;;;;;;;293.13;279.23;;;0.20;99.90;;;;;;4359116;33;20595;-61
2022/02/27 03:10:48;;;;;;;297.90;283.27;;;0.20;99.90;;;;;;4360715;33;20191;-61
2022/02/27 03:13:25;;;;;;;291.70;278.13;;;0.20;99.90;;;;;;4361228;32;20192;-61
2022/02/27 03:15:58;;;;;;;286.27;272.93;;;0.20;99.90;;;;;;4360143;32;20201;-61
2022/02/27 03:18:27;;;;;;;285.70;272.37;;;0.20;99.90;;;;;;4346144;33;20184;-62
2022/02/27 03:20:59;;;;;;;285.77;272.70;;;0.20;99.90;;;;;;4360685;33;20148;-62
2022/02/27 03:23:30;;;;;;;298.90;285.07;;;0.10;99.90;;;;;;4360728;32;20204;-62
2022/02/27 03:25:59;;;;;;;296.53;282.63;;;0.20;99.90;;;;;;4360652;33;20209;-62
2022/02/27 03:28:30;;;;;;;293.97;279.57;;;0.20;99.90;;;;;;4352893;32;20179;-62
2022/02/27 03:30:57;;;;;;;295.23;281.60;;;0.20;99.90;;;;;;4345694;33;20449;-62
2022/02/27 03:33:28;;;;;;;307.50;293.33;;;0.20;99.90;;;;;;4345739;33;20145;-61
2022/02/27 03:36:03;;;;;;;305.13;290.40;;;0.20;99.90;;;;;;4346282;33;20486;-61
2022/02/27 03:38:33;;;;;;;294.53;281.17;;;0.10;99.90;;;;;;4353495;33;20152;-62
2022/02/27 03:41:05;;;;;;;311.23;296.80;;;0.20;99.90;;;;;;4359847;33;20588;-61
2022/02/27 03:43:33;;;;;;;295.50;282.00;;;0.20;99.90;;;;;;4360280;33;20200;-61
2022/02/27 03:46:04;;;;;;;295.47;281.30;;;0.10;99.90;;;;;;4359333;33;20175;-61
2022/02/27 03:48:36;;;;;;;317.37;302.10;;;0.10;99.90;;;;;;4354574;33;20630;-61
2022/02/27 03:51:04;;;;;;;300.93;286.80;;;0.10;99.90;;;;;;4345529;33;20153;-61
2022/02/27 03:53:34;;;;;;;292.60;278.87;;;0.10;99.90;;;;;;4358261;33;20175;-61
2022/02/27 03:56:05;;;;;;;300.63;286.97;;;0.10;99.90;;;;;;4358826;33;20230;-61
2022/02/27 03:58:35;;;;;;;303.77;290.03;;;0.10;99.90;;;;;;4358687;33;20152;-61
2022/02/27 04:01:09;;;;;;;294.20;280.87;;;0.00;99.90;;;;;;4360024;33;20145;-61
2022/02/27 04:03:40;;;;;;;301.87;287.50;;;0.10;99.90;;;;;;4347000;33;20202;-61
2022/02/27 04:06:14;;;;;;;305.17;291.10;;;0.10;99.90;;;;;;4350755;32;20284;-62
2022/02/27 04:08:41;;;;;;;298.43;284.70;;;0.10;99.90;;;;;;4356149;33;20148;-61
2022/02/27 04:11:16;;;;;;;300.13;285.90;;;0.10;99.90;;;;;;4345534;33;20176;-61
2022/02/27 04:13:54;;;;;;;297.67;283.60;;;0.10;99.90;;;;;;4351685;33;20170;-61
2022/02/27 04:16:22;;;;;;;300.57;286.07;;;0.10;99.90;;;;;;4345541;33;20163;-61
2022/02/27 04:18:52;;;;;;;304.47;290.77;;;0.10;99.90;;;;;;4356805;33;20195;-61
2022/02/27 04:21:26;;;;;;;290.47;276.90;;;0.00;99.90;;;;;;4345844;33;20157;-61
2022/02/27 04:23:59;;;;;;;313.23;299.10;;;0.00;99.90;;;;;;4350710;33;20166;-61
2022/02/27 04:26:34;;;;;;;312.97;298.57;;;0.10;99.90;;;;;;4361054;32;20165;-61
2022/02/27 04:29:06;;;;;;;298.97;285.73;;;0.10;99.90;;;;;;4360300;32;20171;-61
2022/02/27 04:31:39;;;;;;;306.23;292.13;;;0.10;99.90;;;;;;4362756;33;20628;-61
2022/02/27 04:34:07;;;;;;;301.87;288.20;;;0.10;99.90;;;;;;4362643;33;20568;-61
2022/02/27 04:36:37;;;;;;;304.60;291.00;;;0.10;99.90;;;;;;4362506;33;20209;-61
2022/02/27 04:39:12;;;;;;;304.13;290.10;;;0.10;99.90;;;;;;4359359;33;20157;-61
2022/02/27 04:41:48;;;;;;;297.87;283.50;;;0.10;99.90;;;;;;4362306;33;20195;-61
2022/02/27 04:44:21;;;;;;;306.97;292.87;;;0.10;99.90;;;;;;4362658;33;20167;-61
2022/02/27 04:46:53;;;;;;;294.63;281.37;;;0.10;99.90;;;;;;4335152;33;20548;-61
2022/02/27 04:49:26;;;;;;;295.60;280.97;;;0.10;99.90;;;;;;4352586;33;20556;-61
2022/02/27 04:52:00;;;;;;;296.37;282.33;;;0.10;99.90;;;;;;4348075;33;20150;-61
2022/02/27 04:54:35;;;;;;;304.93;291.40;;;0.10;99.90;;;;;;4348500;33;20172;-61
2022/02/27 04:57:05;;;;;;;299.67;285.87;;;0.10;99.90;;;;;;4364133;32;20148;-61
2022/02/27 04:59:39;;;;;;;287.77;274.27;;;0.10;99.90;;;;;;4361025;33;20239;-61
2022/02/27 05:02:06;;;;;;;279.37;266.27;;;0.00;99.90;;;;;;4354402;33;20200;-61
2022/02/27 05:04:36;;;;;;;286.90;273.10;;;0.10;99.90;;;;;;4362484;33;20171;-61
2022/02/27 05:07:03;;;;;;;278.47;264.93;;;0.00;99.90;;;;;;4362390;33;20175;-61
2022/02/27 05:09:34;;;;;;;295.53;281.30;;;0.00;99.90;;;;;;4361882;33;20153;-61
2022/02/27 05:12:05;;;;;;;291.67;278.53;;;0.00;99.90;;;;;;4347758;33;20154;-61
2022/02/27 05:17:24;;;;;;;286.93;273.43;;;0.00;99.90;;;;;;4362830;32;20212;-61
2022/02/27 05:19:51;;;;;;;289.17;275.97;;;0.00;99.90;;;;;;4361620;33;20212;-61
2022/02/27 05:22:20;;;;;;;288.17;274.77;;;-0.10;99.90;;;;;;4361807;33;20204;-61
2022/02/27 05:24:47;;;;;;;290.13;276.87;;;-0.10;99.90;;;;;;4363312;32;20233;-61
2022/02/27 05:27:25;;;;;;;290.57;277.43;;;-0.10;99.90;;;;;;4362617;32;20145;-61
2022/02/27 05:30:00;;;;;;;291.00;277.67;;;0.00;99.90;;;;;;4361724;32;20148;-61
2022/02/27 05:32:32;;;;;;;284.13;270.33;;;-0.10;99.90;;;;;;4358617;33;20175;-61
2022/02/27 05:35:01;;;;;;;292.87;279.47;;;-0.10;99.90;;;;;;4361463;33;20148;-61
2022/02/27 05:37:32;;;;;;;292.70;279.10;;;-0.20;99.90;;;;;;4360968;32;20199;-61
2022/02/27 05:39:59;;;;;;;287.80;274.93;;;-0.10;99.90;;;;;;4362390;32;20172;-61
2022/02/27 05:42:26;;;;;;;292.17;278.67;;;-0.10;99.90;;;;;;4361941;32;20160;-61
2022/02/27 05:44:54;;;;;;;292.00;279.10;;;-0.10;99.90;;;;;;4361971;32;20168;-61
2022/02/27 05:47:43;;;;;;;298.87;285.77;;;-0.10;99.90;;;;;;4362191;32;20172;-61
2022/02/27 05:50:25;;;;;;;291.20;277.83;;;-0.10;99.90;;;;;;4362125;32;20152;-61
2022/02/27 05:53:04;;;;;;;290.37;277.27;;;-0.10;99.90;;;;;;4355228;32;20194;-61
2022/02/27 05:55:50;;;;;;;293.67;280.57;;;-0.10;99.90;;;;;;4362003;32;20669;-62
2022/02/27 05:58:21;;;;;;;296.90;283.33;;;-0.10;99.90;;;;;;4361719;32;20168;-61
2022/02/27 06:00:51;;;;;;;287.90;274.73;;;-0.10;99.90;;;;;;4361138;33;20166;-63
2022/02/27 06:03:22;;;;;;;295.20;282.00;;;-0.20;99.90;;;;;;4351554;33;20628;-60
2022/02/27 06:05:56;;;;;;;311.30;297.13;;;-0.20;99.90;;;;;;4361009;33;20192;-60
2022/02/27 06:08:27;;;;;;;303.20;289.50;;;-0.20;99.90;;;;;;4361593;33;20152;-62
2022/02/27 06:10:58;;;;;;;287.00;274.70;;;-0.20;99.90;;;;;;4360950;33;20160;-62
2022/02/27 06:13:34;;;;;;;289.60;277.10;;;-0.20;99.90;;;;;;4356291;33;20204;-62
2022/02/27 06:16:08;;;;;;;286.83;273.83;;;-0.20;99.90;;;;;;4361163;33;20144;-62
2022/02/27 06:18:37;;;;;;;290.20;277.17;;;-0.20;99.90;;;;;;4361450;32;20157;-62
2022/02/27 06:21:24;;;;;;;304.33;290.73;;;-0.10;99.90;;;;;;4360418;33;20156;-62
2022/02/27 06:23:56;;;;;;;309.20;295.50;;;-0.20;99.90;;;;;;4355617;33;20256;-62
2022/02/27 06:26:38;;;;;;;297.60;284.47;;;-0.10;99.90;;;;;;4360549;33;20169;-62
2022/02/27 06:29:07;;;;;;;288.03;275.03;;;-0.20;99.90;;;;;;4346616;33;20149;-60
2022/02/27 06:31:39;;;;;;;293.23;279.30;;;-0.10;99.90;;;;;;4356570;33;20149;-63
2022/02/27 06:34:25;;;;;;;294.93;281.50;;;-0.20;99.90;;;;;;4361417;32;20164;-64
2022/02/27 06:37:04;;;;;;;292.97;279.97;;;-0.20;99.90;;;;;;4360739;32;20214;-65
2022/02/27 06:39:48;;;;;;;291.57;278.27;;;-0.10;99.90;;;;;;4362228;32;20199;-63
2022/02/27 06:42:26;;;;;;;297.83;284.73;;;-0.10;99.90;;;;;;4359385;32;20161;-63
2022/02/27 06:44:54;;;;;;;302.87;288.87;;;-0.10;99.90;;;;;;4359095;33;20255;-64
2022/02/27 06:47:25;;;;;;;297.67;283.77;;;-0.10;99.90;;;;;;4361322;32;20196;-62
2022/02/27 06:50:01;;;;;;;305.23;291.97;;;-0.10;99.90;;;;;;4360067;32;20183;-64
2022/02/27 06:52:43;;;;;;;296.23;283.30;;;0.00;99.90;;;;;;4357741;32;20157;-62
2022/02/27 06:55:21;;;;;;;295.70;282.60;;;0.00;99.90;;;;;;4347356;33;20149;-62
2022/02/27 06:57:50;;;;;;;307.63;294.07;;;0.10;99.90;;;;;;4361277;32;20549;-61
2022/02/27 07:00:24;;;;;;;297.77;284.37;;;0.20;99.90;;;;;;4349076;33;20220;-61
2022/02/27 07:02:50;;;;;;;298.70;285.67;;;0.20;99.90;;;;;;4356168;32;20176;-62
2022/02/27 07:05:26;;;;;;;290.87;277.80;;;0.20;99.90;;;;;;4358390;33;20242;-65
2022/02/27 07:08:02;;;;;;;292.97;279.37;;;0.30;99.90;;;;;;4359736;32;20169;-62
2022/02/27 07:10:28;;;;;;;283.90;270.40;;;0.40;99.90;;;;;;4359903;32;20339;-62
2022/02/27 07:15:50;;;;;;;272.73;260.50;;;0.40;99.90;;;;;;4308050;33;20166;-65
2022/02/27 07:18:17;;;;;;;278.37;265.87;;;0.40;99.90;;;;;;4309934;33;20165;-62
2022/02/27 07:20:56;;;;;;;282.87;270.30;;;0.60;99.90;;;;;;4310714;33;20166;-62
2022/02/27 07:23:23;;;;;;;274.60;262.27;;;0.60;99.90;;;;;;4300665;33;20517;-62
2022/02/27 07:26:04;;;;;;;279.07;266.30;;;0.70;99.90;;;;;;4306465;33;20184;-64
2022/02/27 07:28:35;;;;;;;260.47;247.90;;;0.80;99.90;;;;;;4308820;33;20636;-62
2022/02/27 07:31:09;;;;;;;263.03;250.80;;;0.90;99.90;;;;;;4310977;33;20368;-62
2022/02/27 07:33:37;;;;;;;268.37;256.60;;;1.00;99.90;;;;;;4302787;33;20184;-63
2022/02/27 07:36:07;;;;;;;256.13;244.70;;;1.10;99.90;;;;;;4311148;33;20171;-61
2022/02/27 07:38:40;;;;;;;238.50;228.03;;;1.20;99.90;;;;;;4307459;33;20614;-61
2022/02/27 07:41:07;;;;;;;239.77;229.57;;;1.30;99.90;;;;;;4308072;33;20158;-62
2022/02/27 07:43:34;;;;;;;238.03;227.10;;;1.40;99.90;;;;;;4308086;33;20233;-61
2022/02/27 07:46:07;;;;;;;243.90;233.00;;;1.50;99.90;;;;;;4308673;33;20289;-61
2022/02/27 07:48:34;;;;;;;216.37;206.97;;;1.60;99.90;;;;;;4305455;33;20161;-62
2022/02/27 07:51:08;;;;;;;221.83;211.77;;;1.70;99.90;;;;;;4303698;33;20170;-62
2022/02/27 07:53:39;;;;;;;211.33;201.23;;;1.80;99.90;;;;;;4336868;33;20178;-62
2022/02/27 07:56:14;;;;;;;208.87;199.80;;;2.00;99.90;;;;;;4358448;33;20222;-62
2022/02/27 07:58:49;;;;;;;202.00;192.90;;;2.20;99.90;;;;;;4357912;33;20572;-61
2022/02/27 08:01:24;;;;;;;191.70;183.00;;;2.30;99.90;;;;;;4360115;32;20808;-62
2022/02/27 08:03:53;;;;;;;183.33;174.97;;;2.50;99.90;;;;;;4360827;32;20496;-61
2022/02/27 08:06:23;;;;;;;186.53;178.23;;;2.60;99.90;;;;;;4359335;32;20195;-63
2022/02/27 08:08:55;;;;;;;167.83;159.90;;;2.80;99.90;;;;;;4361042;32;20192;-62
2022/02/27 08:11:27;;;;;;;167.23;159.57;;;3.00;99.90;;;;;;4362441;32;20234;-61
2022/02/27 08:14:04;;;;;;;156.63;149.40;;;3.20;99.90;;;;;;4360930;32;20153;-61
2022/02/27 08:16:38;;;;;;;144.70;138.27;;;3.30;99.90;;;;;;4359955;33;20168;-61
2022/02/27 08:19:09;;;;;;;130.70;124.70;;;3.50;99.90;;;;;;4361978;32;20154;-61
2022/02/27 08:22:21;;;;;;;;;;;;;;;;;;;;;
2022/02/27 08:24:54;;;;;;;129.10;122.77;;;3.60;99.90;;;;;;4358739;32;20158;-62
2022/02/27 08:27:28;;;;;;;119.63;114.20;;;3.70;99.90;;;;;;4361546;33;20162;-61
2022/02/27 08:29:56;;;;;;;110.03;105.00;;;3.80;99.90;;;;;;4359857;32;20219;-61
2022/02/27 08:32:25;;;;;;;114.33;108.83;;;4.00;99.90;;;;;;4362215;32;20149;-64
2022/02/27 08:35:05;;;;;;;106.40;101.37;;;4.20;99.90;;;;;;4358598;33;20232;-61
2022/02/27 08:37:41;;;;;;;109.80;104.40;;;4.30;99.90;;;;;;4360151;33;20129;-61
2022/02/27 08:40:11;;;;;;;103.13;98.43;;;4.40;99.90;;;;;;4361287;32;20181;-61
2022/02/27 08:43:01;;;;;;;109.30;103.60;;;4.50;99.90;;;;;;4362459;32;20637;-61
2022/02/27 08:48:18;;;;;;;95.23;90.57;;;4.70;99.90;;;;;;4357814;33;20171;-61
2022/02/27 08:50:47;;;;;;;93.20;88.67;;;4.90;99.90;;;;;;4359076;33;20153;-60
2022/02/27 08:53:20;;;;;;;96.77;92.30;;;4.90;99.90;;;;;;4360848;33;20208;-60
2022/02/27 08:55:53;;;;;;;94.97;90.63;;;4.90;99.90;;;;;;4360084;32;20161;-60
2022/02/27 08:58:28;;;;;;;93.77;89.00;;;5.00;99.90;;;;;;4359976;33;20298;-61
2022/02/27 09:01:31;;;;;;;106.27;100.83;;;5.00;99.90;;;;;;4360097;32;20140;-61
2022/02/27 09:03:58;;;;;;;88.67;84.37;;;5.20;99.90;;;;;;4360415;32;20145;-61
2022/02/27 09:06:27;;;;;;;92.00;87.60;;;5.20;99.90;;;;;;4359256;32;20694;-63
2022/02/27 09:09:00;;;;;;;93.37;88.73;;;5.30;99.90;;;;;;4360868;32;20156;-61
2022/02/27 09:11:30;;;;;;;95.00;90.40;;;5.30;99.90;;;;;;4359328;32;20487;-62
2022/02/27 09:14:12;;;;;;;95.57;90.87;;;5.40;99.90;;;;;;4358926;32;20153;-64
2022/02/27 09:16:51;;;;;;;89.10;84.77;;;5.40;99.90;;;;;;4356455;33;20163;-60
2022/02/27 09:19:21;;;;;;;87.70;83.13;;;5.60;99.90;;;;;;4359616;33;20228;-61
2022/02/27 09:22:00;;;;;;;82.00;77.83;;;5.60;99.90;;;;;;4359573;33;20167;-61
2022/02/27 09:24:33;;;;;;;76.37;72.60;;;5.60;99.90;;;;;;4359769;32;20206;-61
2022/02/27 09:27:16;;;;;;;77.77;74.03;;;5.70;99.90;;;;;;4358655;33;20163;-60
2022/02/27 09:29:54;;;;;;;75.10;71.10;;;5.80;99.90;;;;;;4359362;33;20145;-61
2022/02/27 09:32:30;;;;;;;74.90;71.40;;;5.80;99.90;;;;;;4360519;33;20647;-61
2022/02/27 09:34:57;;;;;;;76.43;72.50;;;5.90;99.90;;;;;;4359164;33;20140;-64
2022/02/27 09:37:32;;;;;;;75.23;71.43;;;6.00;99.90;;;;;;4359144;33;20129;-62
2022/02/27 09:40:13;;;;;;;72.83;69.30;;;6.00;99.90;;;;;;4359680;33;20164;-61
2022/02/27 09:42:47;;;;;;;64.73;61.27;;;6.00;99.90;;;;;;4360238;33;20166;-62
2022/02/27 09:45:34;;;;;;;77.23;73.30;;;6.00;99.90;;;;;;4358616;33;20149;-63
2022/02/27 09:48:17;;;;;;;75.17;71.47;;;6.00;99.90;;;;;;4330997;33;20197;-62
2022/02/27 09:50:55;;;;;;;76.93;72.33;;;6.10;99.90;;;;;;4334605;33;20165;-63
2022/02/27 09:56:30;;;;;;;79.43;75.33;;;6.20;99.90;;;;;;4298197;33;20234;-62
2022/02/27 09:59:05;;;;;;;80.57;76.53;;;6.20;99.90;;;;;;4294427;33;20724;-61
2022/02/27 10:01:42;;;;;;;86.00;81.30;;;6.20;99.90;;;;;;4295016;33;20138;-62
2022/02/27 10:04:22;;;;;;;87.93;83.57;;;6.30;99.90;;;;;;4294934;33;20225;-65
2022/02/27 10:07:12;;;;;;;79.60;75.57;;;6.30;99.90;;;;;;4291393;33;20225;-60
2022/02/27 10:09:45;;;;;;;86.63;82.53;;;6.30;99.90;;;;;;4265850;33;20150;-63
2022/02/27 10:12:27;;;;;;;92.53;87.90;;;6.40;99.90;;;;;;4261742;33;20163;-61
2022/02/27 10:15:05;;;;;;;93.23;88.93;;;6.40;99.90;;;;;;4262824;33;20239;-63
2022/02/27 10:17:33;;;;;;;86.27;82.37;;;6.40;99.90;;;;;;4258587;33;20174;-65
2022/02/27 10:20:04;;;;;;;90.50;85.90;;;6.50;99.90;;;;;;4254878;32;2434522;-63
2022/02/27 10:22:35;;;;;;;89.17;84.93;;;6.50;99.90;;;;;;4374720;32;20185;-62
2022/02/27 10:25:13;;;;;;;95.00;90.57;;;6.50;99.90;;;;;;4375593;32;20160;-62
2022/02/27 10:28:03;;;;;;;89.27;84.83;;;6.50;99.90;;;;;;4360579;32;20157;-62
2022/02/27 10:30:32;;;;;;;83.20;79.13;;;6.60;99.90;;;;;;4357906;32;20633;-63
2022/02/27 10:33:12;;;;;;;89.90;85.50;;;6.70;99.90;;;;;;4370324;32;20156;-63
2022/02/27 10:35:47;;;;;;;93.90;89.40;;;6.70;99.90;;;;;;4360284;32;20179;-63
2022/02/27 10:38:16;;;;;;;95.40;91.10;;;6.80;99.90;;;;;;4371616;32;20552;-63
2022/02/27 10:40:53;;;;;;;94.37;89.80;;;6.80;99.90;;;;;;4370650;32;20223;-63
2022/02/27 10:43:25;;;;;;;89.40;85.33;;;6.90;99.90;;;;;;4373795;32;20170;-63
2022/02/27 10:46:02;;;;;;;86.53;82.57;;;6.90;99.90;;;;;;4373178;32;20195;-63
2022/02/27 10:48:43;;;;;;;74.87;71.10;;;7.00;99.90;;;;;;4361213;32;20199;-62
2022/02/27 10:51:15;;;;;;;86.07;81.93;;;7.00;99.90;;;;;;4370050;32;20536;-64
2022/02/27 10:53:46;;;;;;;89.33;85.30;;;7.10;99.90;;;;;;4373338;32;20200;-63
2022/02/27 10:56:19;;;;;;;86.50;82.60;;;7.10;99.90;;;;;;4369902;32;20199;-64
2022/02/27 10:58:50;;;;;;;82.90;79.17;;;7.20;99.90;;;;;;4369836;32;20145;-62
2022/02/27 11:01:24;;;;;;;86.63;82.63;;;7.30;99.90;;;;;;4367536;32;20593;-61
2022/02/27 11:03:52;;;;;;;87.00;82.87;;;7.20;99.90;;;;;;4371688;32;20187;-64
2022/02/27 11:06:20;;;;;;;83.90;79.90;;;7.20;99.90;;;;;;4372637;32;20148;-65
2022/02/27 11:08:47;;;;;;;79.03;75.50;;;7.20;99.90;;;;;;4374029;32;20148;-62
2022/02/27 11:11:20;;;;;;;86.80;83.07;;;7.20;99.90;;;;;;4374706;32;20157;-65
2022/02/27 11:13:55;;;;;;;87.67;83.33;;;7.20;99.90;;;;;;4374914;32;20153;-61
2022/02/27 11:16:23;;;;;;;85.00;81.03;;;7.30;99.90;;;;;;4375275;32;20151;-63
2022/02/27 11:18:51;;;;;;;82.00;78.37;;;7.30;99.90;;;;;;4370201;32;21671;-61
2022/02/27 11:21:20;;;;;;;85.63;81.73;;;7.40;99.80;;;;;;4367614;32;20220;-62
2022/02/27 11:23:53;;;;;;;81.53;77.60;;;7.40;99.90;;;;;;4361038;32;20615;-61
2022/02/27 11:26:21;;;;;;;75.00;71.37;;;7.40;99.90;;;;;;4376016;32;20141;-64
2022/02/27 11:29:01;;;;;;;76.17;72.67;;;7.40;99.50;;;;;;4372553;32;20196;-62
2022/02/27 11:31:31;;;;;;;72.73;69.43;;;7.40;99.40;;;;;;4346949;33;20220;-61
2022/02/27 11:34:13;;;;;;;75.00;71.07;;;7.40;99.20;;;;;;4340133;33;20168;-63
2022/02/27 11:36:51;;;;;;;71.50;68.30;;;7.40;99.70;;;;;;4346346;33;20446;-63
2022/02/27 11:42:27;;;;;;;67.43;64.20;;;7.40;99.90;;;;;;4355920;32;20187;-62
2022/02/27 11:44:56;;;;;;;66.70;63.13;;;7.60;99.60;;;;;;4327451;33;20546;-64
2022/02/27 11:47:49;;;;;;;73.80;70.30;;;7.60;99.40;;;;;;4328096;33;20169;-61
2022/02/27 11:50:29;;;;;;;72.13;68.57;;;7.70;99.80;;;;;;4324482;33;20166;-61
2022/02/27 11:53:00;;;;;;;67.73;64.10;;;7.70;99.90;;;;;;4327124;33;20177;-62
2022/02/27 11:55:54;;;;;;;70.23;66.90;;;7.70;99.80;;;;;;4326327;33;20162;-62
2022/02/27 11:58:43;;;;;;;66.63;63.27;;;7.70;99.30;;;;;;4328237;33;20324;-64
2022/02/27 12:01:35;;;;;;;69.93;66.77;;;7.70;99.70;;;;;;4325918;33;20240;-65
2022/02/27 12:04:28;;;;;;;67.07;63.90;;;7.70;99.70;;;;;;4328403;33;20163;-62
2022/02/27 12:07:07;;;;;;;68.77;65.53;;;7.70;99.60;;;;;;4324642;33;20288;-63
2022/02/27 12:10:10;;;;;;;71.27;67.87;;;7.80;99.40;;;;;;4327601;33;20200;-65
2022/02/27 12:12:59;;;;;;;69.17;65.67;;;7.90;98.60;;;;;;4313749;33;20563;-62
2022/02/27 12:15:49;;;;;;;69.83;66.57;;;7.90;98.80;;;;;;4313949;33;20176;-64
2022/02/27 12:18:28;;;;;;;81.90;77.93;;;7.90;99.00;;;;;;4315413;33;20226;-66
2022/02/27 12:21:01;;;;;;;84.23;80.17;;;8.00;98.80;;;;;;4318214;33;20509;-62
2022/02/27 12:23:51;;;;;;;99.73;95.10;;;8.00;98.30;;;;;;4367765;32;20160;-64
2022/02/27 12:26:54;;;;;;;93.60;89.17;;;8.00;98.60;;;;;;4362854;32;20248;-62
2022/02/27 12:29:48;;;;;;;92.57;88.23;;;8.00;98.40;;;;;;4360228;33;20175;-64
2022/02/27 12:32:24;;;;;;;98.97;94.30;;;7.90;98.60;;;;;;4371957;32;20183;-62
2022/02/27 12:35:10;;;;;;;117.13;111.63;;;8.00;98.70;;;;;;4361411;33;20446;-62
2022/02/27 12:37:40;;;;;;;103.00;98.57;;;8.00;98.50;;;;;;4359648;33;20160;-62
2022/02/27 12:43:11;;;;;;;127.10;121.60;;;8.00;98.70;;;;;;4313886;33;20225;-64
2022/02/27 12:45:46;;;;;;;142.97;136.03;;;8.00;98.50;;;;;;4315958;33;20217;-63
2022/02/27 12:48:17;;;;;;;129.70;123.97;;;8.00;98.30;;;;;;4328802;33;20216;-64
2022/02/27 12:50:58;;;;;;;133.70;127.73;;;8.10;98.30;;;;;;4326136;33;20220;-64
2022/02/27 12:53:30;;;;;;;133.63;127.57;;;8.10;97.80;;;;;;4324735;33;20166;-66
2022/02/27 12:55:59;;;;;;;121.20;115.63;;;8.10;98.60;;;;;;4331460;33;20185;-64
2022/02/27 12:58:54;;;;;;;118.13;112.70;;;8.10;98.70;;;;;;4328672;33;20185;-64
2022/02/27 13:01:31;;;;;;;128.93;123.27;;;8.10;98.70;;;;;;4317515;33;20545;-62
2022/02/27 13:04:07;;;;;;;118.87;113.60;;;8.10;98.10;;;;;;4316932;33;20633;-64
2022/02/27 13:06:57;;;;;;;131.93;125.80;;;8.10;97.90;;;;;;4318097;33;20256;-64
2022/02/27 13:09:25;;;;;;;142.20;135.57;;;8.10;97.70;;;;;;4318396;33;20197;-62
2022/02/27 13:17:54;;;;;;;141.87;134.77;;;8.20;97.80;;;;;;4342313;33;20602;-63
2022/02/27 13:24:12;;;;;;;144.03;135.03;;;8.20;98.00;;;;;;4317657;33;20255;-63
2022/02/27 13:27:12;;;;;;;123.07;117.63;;;8.20;97.70;;;;;;4294270;33;20182;-63
2022/02/27 13:29:57;;;;;;;122.83;117.20;;;8.20;98.20;;;;;;4273656;33;20553;-64